sensor_id;sensor_type;location;lat;lon;timestamp;pressure;altitude;pressure_sealevel;temperature;humidity
64141;BME280;50436;50.618;7.932;2023-12-07T00:01:55;96708.03;;;1.08;100.00
64141;BME280;50436;50.618;7.932;2023-12-07T00:04:41;96708.94;;;1.15;100.00
64141;BME280;50436;50.618;7.932;2023-12-07T00:07:27;96707.78;;;1.18;100.00
64141;BME280;50436;50.618;7.932;2023-12-07T00:10:13;96706.47;;;1.28;100.00
64141;BME280;50436;50.618;7.932;2023-12-07T00:13:00;96714.56;;;1.27;100.00
64141;BME280;50436;50.618;7.932;2023-12-07T00:15:46;96715.66;;;1.32;100.00
64141;BME280;50436;50.618;7.932;2023-12-07T00:18:32;96726.94;;;1.26;100.00
64141;BME280;50436;50.618;7.932;2023-12-07T00:21:18;96727.28;;;1.23;100.00
64141;BME280;50436;50.618;7.932;2023-12-07T00:24:04;96727.66;;;1.20;100.00
64141;BME280;50436;50.618;7.932;2023-12-07T00:26:50;96733.38;;;1.24;100.00
64141;BME280;50436;50.618;7.932;2023-12-07T00:29:37;96724.50;;;1.25;100.00
64141;BME280;50436;50.618;7.932;2023-12-07T00:32:23;96736.28;;;1.29;100.00
64141;BME280;50436;50.618;7.932;2023-12-07T00:35:11;96736.75;;;1.32;100.00
64141;BME280;50436;50.618;7.932;2023-12-07T00:37:57;96732.75;;;1.36;100.00
64141;BME280;50436;50.618;7.932;2023-12-07T00:40:43;96730.63;;;1.47;100.00
64141;BME280;50436;50.618;7.932;2023-12-07T00:43:29;96731.53;;;1.54;100.00
64141;BME280;50436;50.618;7.932;2023-12-07T00:46:14;96736.44;;;1.57;100.00
64141;BME280;50436;50.618;7.932;2023-12-07T00:49:00;96737.47;;;1.56;100.00
64141;BME280;50436;50.618;7.932;2023-12-07T00:51:46;96733.16;;;1.55;100.00
64141;BME280;50436;50.618;7.932;2023-12-07T00:54:32;96733.34;;;1.53;100.00
64141;BME280;50436;50.618;7.932;2023-12-07T00:57:18;96745.81;;;1.59;100.00
64141;BME280;50436;50.618;7.932;2023-12-07T01:00:04;96736.69;;;1.62;100.00
64141;BME280;50436;50.618;7.932;2023-12-07T01:02:51;96738.59;;;1.68;100.00
64141;BME280;50436;50.618;7.932;2023-12-07T01:05:37;96739.69;;;1.74;100.00
64141;BME280;50436;50.618;7.932;2023-12-07T01:08:23;96740.69;;;1.73;100.00
64141;BME280;50436;50.618;7.932;2023-12-07T01:11:09;96745.41;;;1.77;100.00
64141;BME280;50436;50.618;7.932;2023-12-07T01:13:55;96746.03;;;1.79;100.00
64141;BME280;50436;50.618;7.932;2023-12-07T01:16:40;96745.97;;;1.73;100.00
64141;BME280;50436;50.618;7.932;2023-12-07T01:19:26;96757.06;;;1.68;100.00
64141;BME280;50436;50.618;7.932;2023-12-07T01:22:12;96763.84;;;1.56;100.00
64141;BME280;50436;50.618;7.932;2023-12-07T01:24:58;96755.25;;;1.54;100.00
64141;BME280;50436;50.618;7.932;2023-12-07T01:27:44;96768.66;;;1.52;100.00
64141;BME280;50436;50.618;7.932;2023-12-07T01:30:30;96769.66;;;1.51;100.00
64141;BME280;50436;50.618;7.932;2023-12-07T01:33:16;96765.56;;;1.49;100.00
64141;BME280;50436;50.618;7.932;2023-12-07T01:36:02;96765.28;;;1.44;100.00
64141;BME280;50436;50.618;7.932;2023-12-07T01:38:48;96769.75;;;1.43;100.00
64141;BME280;50436;50.618;7.932;2023-12-07T01:41:34;96761.56;;;1.38;100.00
64141;BME280;50436;50.618;7.932;2023-12-07T01:44:20;96764.47;;;1.28;100.00
64141;BME280;50436;50.618;7.932;2023-12-07T01:47:06;96766.13;;;1.15;100.00
64141;BME280;50436;50.618;7.932;2023-12-07T01:49:53;96770.56;;;1.14;100.00
64141;BME280;50436;50.618;7.932;2023-12-07T01:52:45;96765.50;;;1.13;100.00
64141;BME280;50436;50.618;7.932;2023-12-07T01:55:33;96765.50;;;1.13;100.00
64141;BME280;50436;50.618;7.932;2023-12-07T01:58:20;96767.56;;;1.32;100.00
64141;BME280;50436;50.618;7.932;2023-12-07T02:01:06;96776.22;;;1.41;100.00
64141;BME280;50436;50.618;7.932;2023-12-07T02:03:52;96776.47;;;1.46;100.00
64141;BME280;50436;50.618;7.932;2023-12-07T02:06:38;96782.84;;;1.51;100.00
64141;BME280;50436;50.618;7.932;2023-12-07T02:09:24;96776.03;;;1.57;100.00
64141;BME280;50436;50.618;7.932;2023-12-07T02:12:09;96782.63;;;1.67;100.00
64141;BME280;50436;50.618;7.932;2023-12-07T02:14:56;96776.97;;;1.71;100.00
64141;BME280;50436;50.618;7.932;2023-12-07T02:23:51;96783.63;;;1.81;100.00
64141;BME280;50436;50.618;7.932;2023-12-07T02:26:38;96772.97;;;1.75;100.00
64141;BME280;50436;50.618;7.932;2023-12-07T02:29:24;96775.81;;;1.73;100.00
64141;BME280;50436;50.618;7.932;2023-12-07T02:32:10;96778.69;;;1.78;100.00
64141;BME280;50436;50.618;7.932;2023-12-07T02:34:56;96779.06;;;1.75;100.00
64141;BME280;50436;50.618;7.932;2023-12-07T02:37:46;96780.16;;;1.81;100.00
64141;BME280;50436;50.618;7.932;2023-12-07T02:40:34;96783.44;;;1.68;100.00
64141;BME280;50436;50.618;7.932;2023-12-07T02:43:24;96779.19;;;1.67;100.00
64141;BME280;50436;50.618;7.932;2023-12-07T02:46:09;96780.28;;;1.58;100.00
64141;BME280;50436;50.618;7.932;2023-12-07T02:48:57;96781.28;;;1.57;100.00
64141;BME280;50436;50.618;7.932;2023-12-07T02:51:43;96781.72;;;1.60;100.00
64141;BME280;50436;50.618;7.932;2023-12-07T02:54:29;96786.66;;;1.63;100.00
64141;BME280;50436;50.618;7.932;2023-12-07T02:57:15;96790.13;;;1.64;100.00
64141;BME280;50436;50.618;7.932;2023-12-07T03:00:05;96791.94;;;1.63;100.00
64141;BME280;50436;50.618;7.932;2023-12-07T03:02:54;96796.19;;;1.64;100.00
64141;BME280;50436;50.618;7.932;2023-12-07T03:05:40;96795.38;;;1.64;100.00
64141;BME280;50436;50.618;7.932;2023-12-07T03:08:26;96803.75;;;1.67;100.00
64141;BME280;50436;50.618;7.932;2023-12-07T03:11:13;96795.94;;;1.59;100.00
64141;BME280;50436;50.618;7.932;2023-12-07T03:13:59;96804.94;;;1.65;100.00
64141;BME280;50436;50.618;7.932;2023-12-07T03:16:45;96801.41;;;1.58;100.00
64141;BME280;50436;50.618;7.932;2023-12-07T03:19:31;96794.56;;;1.63;100.00
64141;BME280;50436;50.618;7.932;2023-12-07T03:22:17;96795.13;;;1.59;100.00
64141;BME280;50436;50.618;7.932;2023-12-07T03:25:03;96799.84;;;1.49;100.00
64141;BME280;50436;50.618;7.932;2023-12-07T03:27:49;96792.28;;;1.46;100.00
64141;BME280;50436;50.618;7.932;2023-12-07T03:30:35;96788.84;;;1.45;100.00
64141;BME280;50436;50.618;7.932;2023-12-07T03:33:20;96795.84;;;1.53;100.00
64141;BME280;50436;50.618;7.932;2023-12-07T03:36:07;96790.84;;;1.58;100.00
64141;BME280;50436;50.618;7.932;2023-12-07T03:38:53;96790.28;;;1.62;100.00
64141;BME280;50436;50.618;7.932;2023-12-07T03:41:39;96788.09;;;1.66;100.00
64141;BME280;50436;50.618;7.932;2023-12-07T03:44:24;96795.00;;;1.67;100.00
64141;BME280;50436;50.618;7.932;2023-12-07T03:47:12;96792.84;;;1.56;100.00
64141;BME280;50436;50.618;7.932;2023-12-07T03:49:58;96791.56;;;1.52;100.00
64141;BME280;50436;50.618;7.932;2023-12-07T03:52:43;96794.84;;;1.54;100.00
64141;BME280;50436;50.618;7.932;2023-12-07T03:55:29;96790.38;;;1.54;100.00
64141;BME280;50436;50.618;7.932;2023-12-07T03:58:15;96788.84;;;1.60;100.00
64141;BME280;50436;50.618;7.932;2023-12-07T04:01:01;96787.38;;;1.57;100.00
64141;BME280;50436;50.618;7.932;2023-12-07T04:03:47;96796.13;;;1.58;100.00
64141;BME280;50436;50.618;7.932;2023-12-07T04:06:33;96799.84;;;1.63;100.00
64141;BME280;50436;50.618;7.932;2023-12-07T04:09:19;96797.03;;;1.65;100.00
64141;BME280;50436;50.618;7.932;2023-12-07T04:12:05;96787.66;;;1.48;100.00
64141;BME280;50436;50.618;7.932;2023-12-07T04:14:51;96788.31;;;1.35;100.00
64141;BME280;50436;50.618;7.932;2023-12-07T04:17:37;96781.31;;;1.13;100.00
64141;BME280;50436;50.618;7.932;2023-12-07T04:20:23;96786.94;;;0.95;100.00
64141;BME280;50436;50.618;7.932;2023-12-07T04:23:09;96779.81;;;0.80;100.00
64141;BME280;50436;50.618;7.932;2023-12-07T04:25:55;96784.69;;;0.69;100.00
64141;BME280;50436;50.618;7.932;2023-12-07T04:28:41;96790.41;;;0.58;100.00
64141;BME280;50436;50.618;7.932;2023-12-07T04:31:27;96784.31;;;0.57;100.00
64141;BME280;50436;50.618;7.932;2023-12-07T04:34:12;96786.41;;;0.62;100.00
64141;BME280;50436;50.618;7.932;2023-12-07T04:36:58;96790.63;;;0.71;100.00
64141;BME280;50436;50.618;7.932;2023-12-07T04:39:44;96787.31;;;0.69;100.00
64141;BME280;50436;50.618;7.932;2023-12-07T04:42:30;96790.81;;;0.84;100.00
64141;BME280;50436;50.618;7.932;2023-12-07T04:45:16;96796.63;;;0.79;100.00
64141;BME280;50436;50.618;7.932;2023-12-07T04:48:02;96807.25;;;0.71;100.00
64141;BME280;50436;50.618;7.932;2023-12-07T04:50:49;96808.47;;;0.61;100.00
64141;BME280;50436;50.618;7.932;2023-12-07T04:53:35;96816.03;;;0.64;100.00
64141;BME280;50436;50.618;7.932;2023-12-07T04:56:21;96808.56;;;0.67;100.00
64141;BME280;50436;50.618;7.932;2023-12-07T04:59:07;96811.97;;;0.76;100.00
64141;BME280;50436;50.618;7.932;2023-12-07T05:01:54;96807.75;;;0.67;100.00
64141;BME280;50436;50.618;7.932;2023-12-07T05:04:39;96803.94;;;0.69;100.00
64141;BME280;50436;50.618;7.932;2023-12-07T05:07:28;96814.47;;;0.54;100.00
64141;BME280;50436;50.618;7.932;2023-12-07T05:10:14;96817.78;;;0.25;100.00
64141;BME280;50436;50.618;7.932;2023-12-07T05:13:00;96819.22;;;0.05;100.00
64141;BME280;50436;50.618;7.932;2023-12-07T05:15:46;96819.63;;;-0.06;100.00
64141;BME280;50436;50.618;7.932;2023-12-07T05:18:32;96831.78;;;-0.05;100.00
64141;BME280;50436;50.618;7.932;2023-12-07T05:21:18;96827.16;;;-0.03;100.00
64141;BME280;50436;50.618;7.932;2023-12-07T05:24:04;96819.16;;;-0.10;100.00
64141;BME280;50436;50.618;7.932;2023-12-07T05:26:52;96815.25;;;-0.14;100.00
64141;BME280;50436;50.618;7.932;2023-12-07T05:29:38;96816.19;;;-0.07;100.00
64141;BME280;50436;50.618;7.932;2023-12-07T05:32:24;96827.72;;;-0.08;100.00
64141;BME280;50436;50.618;7.932;2023-12-07T05:35:10;96815.44;;;-0.23;100.00
64141;BME280;50436;50.618;7.932;2023-12-07T05:37:55;96813.69;;;-0.31;100.00
64141;BME280;50436;50.618;7.932;2023-12-07T05:40:41;96818.94;;;-0.31;100.00
64141;BME280;50436;50.618;7.932;2023-12-07T05:43:27;96818.63;;;-0.36;100.00
64141;BME280;50436;50.618;7.932;2023-12-07T05:46:13;96826.72;;;-0.46;100.00
64141;BME280;50436;50.618;7.932;2023-12-07T05:48:59;96823.59;;;-0.49;100.00
64141;BME280;50436;50.618;7.932;2023-12-07T05:51:45;96829.41;;;-0.54;100.00
64141;BME280;50436;50.618;7.932;2023-12-07T05:54:30;96825.06;;;-0.47;100.00
64141;BME280;50436;50.618;7.932;2023-12-07T05:57:16;96825.25;;;-0.48;100.00
64141;BME280;50436;50.618;7.932;2023-12-07T06:00:03;96832.47;;;-0.42;100.00
64141;BME280;50436;50.618;7.932;2023-12-07T06:02:57;96832.41;;;-0.34;100.00
64141;BME280;50436;50.618;7.932;2023-12-07T06:05:43;96831.56;;;-0.26;100.00
64141;BME280;50436;50.618;7.932;2023-12-07T06:08:30;96831.22;;;-0.23;100.00
64141;BME280;50436;50.618;7.932;2023-12-07T06:11:16;96835.50;;;-0.22;100.00
64141;BME280;50436;50.618;7.932;2023-12-07T06:14:02;96841.38;;;-0.12;100.00
64141;BME280;50436;50.618;7.932;2023-12-07T06:16:49;96834.75;;;-0.08;100.00
64141;BME280;50436;50.618;7.932;2023-12-07T06:19:34;96845.78;;;-0.05;100.00
64141;BME280;50436;50.618;7.932;2023-12-07T06:22:20;96844.50;;;-0.17;100.00
64141;BME280;50436;50.618;7.932;2023-12-07T06:25:07;96847.72;;;0.02;100.00
64141;BME280;50436;50.618;7.932;2023-12-07T06:27:54;96854.63;;;0.03;100.00
64141;BME280;50436;50.618;7.932;2023-12-07T06:30:41;96858.78;;;-0.11;100.00
64141;BME280;50436;50.618;7.932;2023-12-07T06:33:27;96862.91;;;-0.17;100.00
64141;BME280;50436;50.618;7.932;2023-12-07T06:36:23;96866.63;;;-0.03;100.00
64141;BME280;50436;50.618;7.932;2023-12-07T06:39:09;96869.63;;;-0.06;100.00
64141;BME280;50436;50.618;7.932;2023-12-07T06:41:55;96870.47;;;-0.14;100.00
64141;BME280;50436;50.618;7.932;2023-12-07T06:44:50;96870.41;;;0.03;100.00
64141;BME280;50436;50.618;7.932;2023-12-07T06:47:37;96870.66;;;0.39;100.00
64141;BME280;50436;50.618;7.932;2023-12-07T06:50:23;96871.34;;;0.41;100.00
64141;BME280;50436;50.618;7.932;2023-12-07T06:53:09;96872.09;;;0.26;100.00
64141;BME280;50436;50.618;7.932;2023-12-07T06:55:55;96862.81;;;0.31;100.00
64141;BME280;50436;50.618;7.932;2023-12-07T06:58:41;96864.59;;;0.38;100.00
64141;BME280;50436;50.618;7.932;2023-12-07T07:01:27;96873.53;;;0.29;100.00
64141;BME280;50436;50.618;7.932;2023-12-07T07:04:13;96868.09;;;0.31;100.00
64141;BME280;50436;50.618;7.932;2023-12-07T07:06:58;96867.19;;;0.23;100.00
64141;BME280;50436;50.618;7.932;2023-12-07T07:09:44;96858.88;;;0.35;100.00
64141;BME280;50436;50.618;7.932;2023-12-07T07:12:31;96860.59;;;0.19;100.00
64141;BME280;50436;50.618;7.932;2023-12-07T07:15:17;96856.66;;;0.23;100.00
64141;BME280;50436;50.618;7.932;2023-12-07T07:18:04;96854.06;;;0.38;100.00
64141;BME280;50436;50.618;7.932;2023-12-07T07:20:51;96847.63;;;0.18;100.00
64141;BME280;50436;50.618;7.932;2023-12-07T07:23:37;96853.44;;;0.05;100.00
64141;BME280;50436;50.618;7.932;2023-12-07T07:26:23;96846.38;;;0.06;100.00
64141;BME280;50436;50.618;7.932;2023-12-07T07:29:10;96836.69;;;-0.02;100.00
64141;BME280;50436;50.618;7.932;2023-12-07T07:31:56;96842.53;;;-0.15;100.00
64141;BME280;50436;50.618;7.932;2023-12-07T07:34:42;96838.41;;;-0.17;100.00
64141;BME280;50436;50.618;7.932;2023-12-07T07:37:28;96830.50;;;-0.48;100.00
64141;BME280;50436;50.618;7.932;2023-12-07T07:40:14;96836.72;;;-0.41;100.00
64141;BME280;50436;50.618;7.932;2023-12-07T07:43:00;96837.75;;;-0.11;100.00
64141;BME280;50436;50.618;7.932;2023-12-07T07:45:46;96839.00;;;0.01;100.00
64141;BME280;50436;50.618;7.932;2023-12-07T07:48:32;96841.81;;;-0.09;100.00
64141;BME280;50436;50.618;7.932;2023-12-07T07:51:17;96847.59;;;-0.05;100.00
64141;BME280;50436;50.618;7.932;2023-12-07T07:54:03;96839.31;;;-0.33;100.00
64141;BME280;50436;50.618;7.932;2023-12-07T07:56:49;96835.97;;;-0.19;100.00
64141;BME280;50436;50.618;7.932;2023-12-07T07:59:35;96837.75;;;-0.11;100.00
64141;BME280;50436;50.618;7.932;2023-12-07T08:02:21;96840.69;;;-0.06;100.00
64141;BME280;50436;50.618;7.932;2023-12-07T08:05:09;96836.50;;;-0.32;100.00
64141;BME280;50436;50.618;7.932;2023-12-07T08:07:55;96830.19;;;-0.45;100.00
64141;BME280;50436;50.618;7.932;2023-12-07T08:10:41;96832.28;;;-0.41;100.00
64141;BME280;50436;50.618;7.932;2023-12-07T08:13:27;96823.69;;;-0.26;100.00
64141;BME280;50436;50.618;7.932;2023-12-07T08:16:13;96825.91;;;-0.07;100.00
64141;BME280;50436;50.618;7.932;2023-12-07T08:18:59;96820.25;;;-0.35;100.00
64141;BME280;50436;50.618;7.932;2023-12-07T08:21:45;96812.94;;;-0.17;100.00
64141;BME280;50436;50.618;7.932;2023-12-07T08:24:30;96814.47;;;-0.22;100.00
64141;BME280;50436;50.618;7.932;2023-12-07T08:27:16;96816.09;;;-0.21;100.00
64141;BME280;50436;50.618;7.932;2023-12-07T08:30:03;96818.19;;;-0.17;100.00
64141;BME280;50436;50.618;7.932;2023-12-07T08:32:49;96821.25;;;-0.36;100.00
64141;BME280;50436;50.618;7.932;2023-12-07T08:35:35;96827.16;;;-0.34;100.00
64141;BME280;50436;50.618;7.932;2023-12-07T08:38:21;96831.84;;;-0.13;100.00
64141;BME280;50436;50.618;7.932;2023-12-07T08:41:08;96827.81;;;-0.01;100.00
64141;BME280;50436;50.618;7.932;2023-12-07T08:43:54;96821.50;;;-0.15;100.00
64141;BME280;50436;50.618;7.932;2023-12-07T08:46:40;96824.03;;;0.02;100.00
64141;BME280;50436;50.618;7.932;2023-12-07T08:49:27;96823.41;;;-0.09;100.00
64141;BME280;50436;50.618;7.932;2023-12-07T08:52:13;96827.13;;;-0.26;100.00
64141;BME280;50436;50.618;7.932;2023-12-07T08:54:59;96833.34;;;-0.58;100.00
64141;BME280;50436;50.618;7.932;2023-12-07T08:57:45;96817.41;;;-0.65;100.00
64141;BME280;50436;50.618;7.932;2023-12-07T09:00:32;96834.84;;;-0.72;100.00
64141;BME280;50436;50.618;7.932;2023-12-07T09:03:18;96840.63;;;-0.76;100.00
64141;BME280;50436;50.618;7.932;2023-12-07T09:06:04;96838.25;;;-0.55;100.00
64141;BME280;50436;50.618;7.932;2023-12-07T09:08:50;96836.75;;;-0.49;100.00
64141;BME280;50436;50.618;7.932;2023-12-07T09:11:36;96839.84;;;-0.38;100.00
64141;BME280;50436;50.618;7.932;2023-12-07T09:14:22;96850.66;;;-0.33;100.00
64141;BME280;50436;50.618;7.932;2023-12-07T09:17:08;96845.78;;;-0.44;100.00
64141;BME280;50436;50.618;7.932;2023-12-07T09:19:54;96852.22;;;-0.46;100.00
64141;BME280;50436;50.618;7.932;2023-12-07T09:22:42;96846.78;;;-0.45;100.00
64141;BME280;50436;50.618;7.932;2023-12-07T09:25:28;96841.53;;;-0.53;100.00
64141;BME280;50436;50.618;7.932;2023-12-07T09:28:15;96842.69;;;-0.56;100.00
64141;BME280;50436;50.618;7.932;2023-12-07T09:31:01;96843.66;;;-0.48;100.00
64141;BME280;50436;50.618;7.932;2023-12-07T09:33:47;96853.59;;;-0.28;100.00
64141;BME280;50436;50.618;7.932;2023-12-07T09:36:33;96855.25;;;-0.26;100.00
64141;BME280;50436;50.618;7.932;2023-12-07T09:39:19;96844.78;;;-0.04;100.00
64141;BME280;50436;50.618;7.932;2023-12-07T09:42:05;96844.94;;;-0.05;100.00
64141;BME280;50436;50.618;7.932;2023-12-07T09:44:54;96845.13;;;0.24;100.00
64141;BME280;50436;50.618;7.932;2023-12-07T09:47:41;96841.72;;;0.16;100.00
64141;BME280;50436;50.618;7.932;2023-12-07T09:50:28;96843.94;;;0.50;100.00
64141;BME280;50436;50.618;7.932;2023-12-07T09:53:13;96842.81;;;0.67;100.00
64141;BME280;50436;50.618;7.932;2023-12-07T09:55:59;96834.25;;;0.88;100.00
64141;BME280;50436;50.618;7.932;2023-12-07T09:58:45;96827.25;;;0.80;100.00
64141;BME280;50436;50.618;7.932;2023-12-07T10:01:31;96831.59;;;1.41;100.00
64141;BME280;50436;50.618;7.932;2023-12-07T10:04:21;96830.06;;;2.12;100.00
64141;BME280;50436;50.618;7.932;2023-12-07T10:07:09;96830.84;;;3.54;100.00
64141;BME280;50436;50.618;7.932;2023-12-07T10:09:55;96822.50;;;3.98;100.00
64141;BME280;50436;50.618;7.932;2023-12-07T10:12:59;96822.50;;;3.50;100.00
64141;BME280;50436;50.618;7.932;2023-12-07T10:15:45;96817.31;;;2.58;100.00
64141;BME280;50436;50.618;7.932;2023-12-07T10:18:31;96810.44;;;2.21;100.00
64141;BME280;50436;50.618;7.932;2023-12-07T10:21:34;96808.72;;;1.77;100.00
64141;BME280;50436;50.618;7.932;2023-12-07T10:24:21;96803.19;;;1.87;100.00
64141;BME280;50436;50.618;7.932;2023-12-07T10:27:07;96810.44;;;1.85;100.00
64141;BME280;50436;50.618;7.932;2023-12-07T10:29:53;96799.78;;;2.50;100.00
64141;BME280;50436;50.618;7.932;2023-12-07T10:32:39;96803.88;;;1.95;100.00
64141;BME280;50436;50.618;7.932;2023-12-07T10:35:25;96801.75;;;1.55;100.00
64141;BME280;50436;50.618;7.932;2023-12-07T10:38:11;96797.72;;;2.10;100.00
64141;BME280;50436;50.618;7.932;2023-12-07T10:41:05;96795.50;;;1.92;100.00
64141;BME280;50436;50.618;7.932;2023-12-07T10:44:00;96807.09;;;1.76;100.00
64141;BME280;50436;50.618;7.932;2023-12-07T10:46:46;96817.63;;;1.91;100.00
64141;BME280;50436;50.618;7.932;2023-12-07T10:49:33;96805.84;;;1.72;100.00
64141;BME280;50436;50.618;7.932;2023-12-07T10:52:23;96802.63;;;1.77;100.00
64141;BME280;50436;50.618;7.932;2023-12-07T10:55:15;96802.16;;;1.88;100.00
64141;BME280;50436;50.618;7.932;2023-12-07T10:58:01;96788.41;;;1.56;100.00
64141;BME280;50436;50.618;7.932;2023-12-07T11:00:47;96792.47;;;1.44;100.00
64141;BME280;50436;50.618;7.932;2023-12-07T11:03:34;96781.59;;;1.18;100.00
64141;BME280;50436;50.618;7.932;2023-12-07T11:06:20;96777.44;;;0.86;100.00
64141;BME280;50436;50.618;7.932;2023-12-07T11:09:12;96764.66;;;1.27;100.00
64141;BME280;50436;50.618;7.932;2023-12-07T11:12:05;96765.66;;;0.81;100.00
64141;BME280;50436;50.618;7.932;2023-12-07T11:14:56;96760.13;;;1.35;100.00
64141;BME280;50436;50.618;7.932;2023-12-07T11:17:54;96756.13;;;1.10;100.00
64141;BME280;50436;50.618;7.932;2023-12-07T11:20:42;96753.13;;;1.13;100.00
64141;BME280;50436;50.618;7.932;2023-12-07T11:23:31;96744.94;;;1.37;100.00
64141;BME280;50436;50.618;7.932;2023-12-07T11:26:20;96744.84;;;1.31;100.00
64141;BME280;50436;50.618;7.932;2023-12-07T11:29:06;96739.59;;;1.01;100.00
64141;BME280;50436;50.618;7.932;2023-12-07T11:31:56;96737.19;;;1.87;100.00
64141;BME280;50436;50.618;7.932;2023-12-07T11:34:43;96735.38;;;1.87;100.00
64141;BME280;50436;50.618;7.932;2023-12-07T11:40:54;96737.69;;;1.25;100.00
64141;BME280;50436;50.618;7.932;2023-12-07T11:43:44;96725.09;;;1.56;100.00
64141;BME280;50436;50.618;7.932;2023-12-07T11:46:31;96721.56;;;1.34;100.00
64141;BME280;50436;50.618;7.932;2023-12-07T11:49:17;96712.22;;;1.17;100.00
64141;BME280;50436;50.618;7.932;2023-12-07T11:52:32;96702.56;;;1.24;100.00
64141;BME280;50436;50.618;7.932;2023-12-07T11:55:18;96695.22;;;1.20;100.00
64141;BME280;50436;50.618;7.932;2023-12-07T11:58:04;96681.88;;;2.21;100.00
64141;BME280;50436;50.618;7.932;2023-12-07T12:00:52;96665.47;;;1.62;100.00
64141;BME280;50436;50.618;7.932;2023-12-07T12:03:38;96660.75;;;1.79;100.00
64141;BME280;50436;50.618;7.932;2023-12-07T12:06:24;96659.19;;;2.06;100.00
64141;BME280;50436;50.618;7.932;2023-12-07T12:09:12;96663.00;;;1.39;100.00
64141;BME280;50436;50.618;7.932;2023-12-07T12:11:58;96667.53;;;0.94;100.00
64141;BME280;50436;50.618;7.932;2023-12-07T12:14:45;96664.09;;;2.09;100.00
64141;BME280;50436;50.618;7.932;2023-12-07T12:17:31;96651.13;;;2.35;100.00
64141;BME280;50436;50.618;7.932;2023-12-07T12:20:17;96651.91;;;2.98;100.00
64141;BME280;50436;50.618;7.932;2023-12-07T12:23:04;96643.97;;;2.64;100.00
64141;BME280;50436;50.618;7.932;2023-12-07T12:25:50;96633.94;;;1.97;100.00
64141;BME280;50436;50.618;7.932;2023-12-07T12:28:37;96636.91;;;1.87;100.00
64141;BME280;50436;50.618;7.932;2023-12-07T12:31:28;96632.59;;;1.79;100.00
64141;BME280;50436;50.618;7.932;2023-12-07T12:34:14;96628.59;;;1.68;100.00
64141;BME280;50436;50.618;7.932;2023-12-07T12:37:00;96634.13;;;1.52;100.00
64141;BME280;50436;50.618;7.932;2023-12-07T12:39:46;96635.72;;;1.32;100.00
64141;BME280;50436;50.618;7.932;2023-12-07T12:42:33;96620.66;;;1.26;100.00
64141;BME280;50436;50.618;7.932;2023-12-07T12:45:19;96626.03;;;1.32;100.00
64141;BME280;50436;50.618;7.932;2023-12-07T12:48:05;96632.59;;;1.07;100.00
64141;BME280;50436;50.618;7.932;2023-12-07T12:50:51;96626.44;;;1.00;100.00
64141;BME280;50436;50.618;7.932;2023-12-07T12:53:44;96623.91;;;0.92;100.00
64141;BME280;50436;50.618;7.932;2023-12-07T12:56:31;96622.56;;;0.81;100.00
64141;BME280;50436;50.618;7.932;2023-12-07T12:59:18;96622.47;;;0.74;100.00
64141;BME280;50436;50.618;7.932;2023-12-07T13:02:04;96618.38;;;0.27;100.00
64141;BME280;50436;50.618;7.932;2023-12-07T13:04:50;96614.13;;;0.41;100.00
64141;BME280;50436;50.618;7.932;2023-12-07T13:07:35;96614.09;;;0.26;100.00
64141;BME280;50436;50.618;7.932;2023-12-07T13:10:21;96612.00;;;0.22;100.00
64141;BME280;50436;50.618;7.932;2023-12-07T13:13:07;96608.47;;;0.00;100.00
64141;BME280;50436;50.618;7.932;2023-12-07T13:15:53;96602.94;;;0.10;100.00
64141;BME280;50436;50.618;7.932;2023-12-07T13:18:39;96600.19;;;0.03;100.00
64141;BME280;50436;50.618;7.932;2023-12-07T13:21:25;96607.22;;;0.25;100.00
64141;BME280;50436;50.618;7.932;2023-12-07T13:24:11;96593.75;;;0.06;100.00
64141;BME280;50436;50.618;7.932;2023-12-07T13:26:58;96596.28;;;0.14;100.00
64141;BME280;50436;50.618;7.932;2023-12-07T13:29:47;96595.97;;;0.17;100.00
64141;BME280;50436;50.618;7.932;2023-12-07T13:32:33;96590.50;;;0.18;100.00
64141;BME280;50436;50.618;7.932;2023-12-07T13:35:22;96589.75;;;-0.05;100.00
64141;BME280;50436;50.618;7.932;2023-12-07T13:38:09;96588.88;;;0.32;100.00
64141;BME280;50436;50.618;7.932;2023-12-07T13:40:54;96590.69;;;0.17;100.00
64141;BME280;50436;50.618;7.932;2023-12-07T13:43:40;96588.59;;;0.12;100.00
64141;BME280;50436;50.618;7.932;2023-12-07T13:46:27;96585.06;;;0.35;100.00
64141;BME280;50436;50.618;7.932;2023-12-07T13:49:13;96574.31;;;-0.08;100.00
64141;BME280;50436;50.618;7.932;2023-12-07T13:52:03;96570.69;;;-0.07;100.00
64141;BME280;50436;50.618;7.932;2023-12-07T13:54:49;96560.75;;;-0.35;100.00
64141;BME280;50436;50.618;7.932;2023-12-07T13:57:35;96561.47;;;-0.26;100.00
64141;BME280;50436;50.618;7.932;2023-12-07T14:00:21;96568.38;;;-0.25;100.00
64141;BME280;50436;50.618;7.932;2023-12-07T14:03:08;96559.47;;;-0.39;100.00
64141;BME280;50436;50.618;7.932;2023-12-07T14:05:54;96574.00;;;-0.28;100.00
64141;BME280;50436;50.618;7.932;2023-12-07T14:08:39;96569.94;;;-0.16;100.00
64141;BME280;50436;50.618;7.932;2023-12-07T14:11:25;96560.06;;;-0.14;100.00
64141;BME280;50436;50.618;7.932;2023-12-07T14:14:11;96544.06;;;-0.27;100.00
64141;BME280;50436;50.618;7.932;2023-12-07T14:16:58;96537.84;;;0.04;100.00
64141;BME280;50436;50.618;7.932;2023-12-07T14:19:44;96549.94;;;0.13;100.00
64141;BME280;50436;50.618;7.932;2023-12-07T14:22:30;96539.59;;;0.11;100.00
64141;BME280;50436;50.618;7.932;2023-12-07T14:25:16;96542.59;;;0.08;100.00
64141;BME280;50436;50.618;7.932;2023-12-07T14:28:03;96527.09;;;-0.24;100.00
64141;BME280;50436;50.618;7.932;2023-12-07T14:30:49;96522.66;;;-0.24;100.00
64141;BME280;50436;50.618;7.932;2023-12-07T14:33:35;96518.28;;;-0.32;100.00
64141;BME280;50436;50.618;7.932;2023-12-07T14:36:21;96523.63;;;-0.40;100.00
64141;BME280;50436;50.618;7.932;2023-12-07T14:39:07;96524.38;;;-0.46;100.00
64141;BME280;50436;50.618;7.932;2023-12-07T14:41:53;96523.38;;;-0.45;100.00
64141;BME280;50436;50.618;7.932;2023-12-07T14:44:44;96521.06;;;-0.48;100.00
64141;BME280;50436;50.618;7.932;2023-12-07T14:47:30;96518.56;;;-0.41;100.00
64141;BME280;50436;50.618;7.932;2023-12-07T14:50:16;96509.31;;;-0.52;100.00